Alat, Azerbaijan

9:17 AM AZST on August 22, 2014 (GMT +0500)
Bina | Change Station
CLOSE
Current Station
Airport
Location: Baku,
Elevation: 0 ft
Nearby Weather Stations

Elev 0 ft 40.45 °N, 50.07 °E | Updated 17 minutes ago

Clear
Clear
84 °F
Feels Like 88 °F
N
14
Wind Variable Wind from NNW

Today
High -- | Low -- °F
--% Chance of Precip.
Yesterday
High -- | Low -- °F
Precip. -- in
7:00 AM 8:29 PM
Waning Crescent, 10% visible
Pressure 29.89 in
Visibility -9999.0 miles
Clouds
Heat Index 88 °F
Dew Point 70 °F
Humidity 62%
Rainfall 0.00 in
Snow Depth Not available.
UV Not available.
Pollen Not available.
Air Quality Not available.
Flu Activity Not available.
METAR UBBB 220400Z 34012KT CAVOK 29/21 Q1012 88CLRD70 NOSIG

More Conditions Fewer Conditions

Pressure 29.89 in
Visibility -9999.0 miles
Clouds
Heat Index 88 °F
Dew Point 70 °F
Humidity 62%
Rainfall 0.00 in
Snow Depth Not available.
UV Not available.
Pollen Not available.
Air Quality Not available.
Flu Activity Not available.
METAR UBBB 220400Z 34012KT CAVOK 29/21 Q1012 88CLRD70 NOSIG

More Conditions Fewer Conditions

10-Day Weather Forecast

Almanac

Astronomy

Aug. 22, 2014 Rise Set
Actual Time 7:00 AM AZST 8:29 PM AZST
Civil Twilight 6:31 AM AZST 8:58 PM AZST
Nautical Twilight 5:57 AM AZST 9:32 PM AZST
Astronomical Twilight 5:21 AM AZST 10:08 PM AZST
Moon 4:02 AM AZST 6:23 PM AZST
Length of Visible Light 14h 26m
Length of Day
13h 29m
Tomorrow will be 2m 25s shorter.
Waning Crescent, 10% of the Moon is Illuminated
Today
Waning Crescent
Aug 25
New
Sep 2
First Quarter
Sep 8
Full
Sep 15
Last Quarter

Yesterday's Extremes

Country Highs Country Lows

Community

WunderPhotos

Upload Photos

1,746,128 photos uploaded!

Nearby

Snow Depth

Not available.

Earthquake Activity

City Distance Mag. Time & Date
No recent earthquake activity has been reported nearby.
Minimum magnitude displayed is 2.5.

Coastal Water Temperatures

Place Temperature
No Stations Reporting

Nearby Weather Stations